Time;durP1;ratioP1;P1;durP2;ratioP2;P2;SDS_P1;SDS_P2;PMS_P1;PMS_P2;Temp;Humidity;BMP_temperature;BMP_pressure;BME280_temperature;BME280_humidity;BME280_pressure;Samples;Min_cycle;Max_cycle;Signal;HPM_P1;HPM_P2
2022/09/10 00:01:15;;;;;;;5.10;2.97;;;;;;;;;;4974154;28;20447;-48
2022/09/10 00:03:44;;;;;;;6.57;3.67;;;;;;;;;;4975920;28;20416;-47
2022/09/10 00:06:11;;;;;;;4.43;2.83;;;;;;;;;;4975584;28;21083;-48
2022/09/10 00:08:38;;;;;;;5.73;3.27;;;;;;;;;;4974380;28;20411;-47
2022/09/10 00:11:08;;;;;;;7.10;3.33;;;;;;;;;;4974913;28;20413;-48
2022/09/10 00:13:34;;;;;;;3.80;3.03;;;;;;;;;;4974596;28;20412;-48
2022/09/10 00:16:02;;;;;;;3.80;3.37;;;;;;;;;;4975485;28;20461;-48
2022/09/10 00:18:28;;;;;;;3.83;3.13;;;;;;;;;;4975497;28;20409;-48
2022/09/10 00:20:55;;;;;;;6.90;3.40;;;;;;;;;;4975144;28;20415;-48
2022/09/10 00:23:22;;;;;;;9.10;3.20;;;;;;;;;;4975462;28;20427;-48
2022/09/10 00:25:50;;;;;;;3.50;3.20;;;;;;;;;;4975047;28;20422;-48
2022/09/10 00:28:16;;;;;;;5.40;3.37;;;;;;;;;;4975394;28;20405;-48
2022/09/10 00:30:46;;;;;;;2.73;2.37;;;;;;;;;;4974841;28;20451;-47
2022/09/10 00:33:16;;;;;;;6.03;2.83;;;;;;;;;;4975346;28;20387;-48
2022/09/10 00:35:42;;;;;;;4.70;3.10;;;;;;;;;;4974938;28;20496;-48
2022/09/10 00:38:10;;;;;;;5.63;3.00;;;;;;;;;;4975135;28;20756;-47
2022/09/10 00:40:36;;;;;;;3.00;2.80;;;;;;;;;;4974707;28;20376;-48
2022/09/10 00:43:03;;;;;;;5.33;2.80;;;;;;;;;;4975355;28;20418;-48
2022/09/10 00:45:31;;;;;;;6.77;3.10;;;;;;;;;;4973401;28;20434;-47
2022/09/10 00:48:02;;;;;;;3.20;2.90;;;;;;;;;;4974783;28;20917;-47
2022/09/10 00:50:29;;;;;;;3.07;2.77;;;;;;;;;;4974543;28;20897;-48
2022/09/10 00:52:57;;;;;;;4.60;3.00;;;;;;;;;;4974917;28;20409;-48
2022/09/10 00:55:23;;;;;;;5.17;3.23;;;;;;;;;;4974523;28;20538;-48
2022/09/10 00:57:53;;;;;;;3.87;2.63;;;;;;;;;;4974549;28;20908;-48
2022/09/10 01:00:19;;;;;;;8.67;3.03;;;;;;;;;;4974288;28;20399;-47
2022/09/10 01:02:45;;;;;;;4.87;2.77;;;;;;;;;;4973824;28;20383;-49
2022/09/10 01:05:12;;;;;;;3.27;2.97;;;;;;;;;;4973851;28;20411;-48
2022/09/10 01:07:38;;;;;;;3.90;3.47;;;;;;;;;;4974660;28;20401;-48
2022/09/10 01:10:06;;;;;;;5.73;3.13;;;;;;;;;;4974099;28;20409;-48
2022/09/10 01:12:38;;;;;;;6.97;3.57;;;;;;;;;;4974625;28;20399;-48
2022/09/10 01:15:08;;;;;;;5.60;3.13;;;;;;;;;;4973130;28;20414;-47
2022/09/10 01:17:34;;;;;;;4.30;3.10;;;;;;;;;;4974241;28;20504;-48
2022/09/10 01:20:18;;;;;;;5.80;3.27;;;;;;;;;;4973894;28;20492;-48
2022/09/10 01:23:03;;;;;;;5.30;3.30;;;;;;;;;;4974437;28;20371;-48
2022/09/10 01:25:40;;;;;;;2.90;2.70;;;;;;;;;;4973991;28;20407;-48
2022/09/10 01:28:13;;;;;;;7.10;3.50;;;;;;;;;;4974006;28;20379;-47
2022/09/10 01:30:44;;;;;;;9.63;3.30;;;;;;;;;;4973185;28;20372;-48
2022/09/10 01:33:10;;;;;;;3.33;3.10;;;;;;;;;;4974165;28;20486;-48
2022/09/10 01:35:42;;;;;;;3.97;3.30;;;;;;;;;;4973804;28;20649;-49
2022/09/10 01:38:23;;;;;;;5.10;3.40;;;;;;;;;;4974221;28;20467;-48
2022/09/10 01:40:48;;;;;;;5.23;4.80;;;;;;;;;;4973569;28;20386;-48
2022/09/10 01:43:15;;;;;;;6.60;3.70;;;;;;;;;;4974041;28;20405;-48
2022/09/10 01:45:50;;;;;;;5.50;2.87;;;;;;;;;;4972632;28;21163;-48
2022/09/10 01:48:28;;;;;;;4.00;3.10;;;;;;;;;;4973763;28;20386;-49
2022/09/10 01:50:57;;;;;;;8.13;3.80;;;;;;;;;;4973388;28;20767;-47
2022/09/10 01:53:39;;;;;;;3.60;2.53;;;;;;;;;;4973708;28;20388;-47
2022/09/10 01:56:19;;;;;;;5.13;3.47;;;;;;;;;;4973445;28;20435;-48
2022/09/10 01:58:45;;;;;;;4.80;2.70;;;;;;;;;;4973703;28;20403;-49
2022/09/10 02:01:19;;;;;;;2.60;2.50;;;;;;;;;;4973319;28;20384;-48
2022/09/10 02:03:47;;;;;;;8.00;3.30;;;;;;;;;;4973626;28;20442;-48
2022/09/10 02:06:15;;;;;;;3.80;2.40;;;;;;;;;;4973411;28;20436;-48
2022/09/10 02:08:43;;;;;;;3.43;3.13;;;;;;;;;;4973589;28;20767;-48
2022/09/10 02:11:10;;;;;;;9.70;3.30;;;;;;;;;;4973128;28;20384;-49
2022/09/10 02:13:37;;;;;;;4.07;3.10;;;;;;;;;;4972956;28;20492;-48
2022/09/10 02:16:05;;;;;;;3.47;3.03;;;;;;;;;;4972515;28;20435;-48
2022/09/10 02:18:31;;;;;;;2.80;2.60;;;;;;;;;;4973706;28;20405;-49
2022/09/10 02:20:57;;;;;;;2.73;2.53;;;;;;;;;;4972956;28;20457;-47
2022/09/10 02:23:30;;;;;;;3.07;2.87;;;;;;;;;;4973237;28;20382;-48
2022/09/10 02:25:56;;;;;;;3.50;2.60;;;;;;;;;;4973181;28;20494;-48
2022/09/10 02:28:22;;;;;;;4.73;2.47;;;;;;;;;;4973315;28;20495;-48
2022/09/10 02:30:48;;;;;;;6.83;3.13;;;;;;;;;;4972791;28;20388;-48
2022/09/10 02:33:17;;;;;;;2.83;2.30;;;;;;;;;;4973616;28;20419;-48
2022/09/10 02:35:43;;;;;;;3.87;2.10;;;;;;;;;;4973125;28;20923;-48
2022/09/10 02:38:09;;;;;;;2.80;2.60;;;;;;;;;;4973276;28;20788;-48
2022/09/10 02:40:35;;;;;;;3.93;2.50;;;;;;;;;;4972682;28;20455;-48
2022/09/10 02:43:03;;;;;;;6.43;2.07;;;;;;;;;;4973181;28;20376;-49
2022/09/10 02:45:29;;;;;;;3.27;2.20;;;;;;;;;;4971278;28;20425;-48
2022/09/10 02:47:55;;;;;;;2.53;2.33;;;;;;;;;;4972943;28;20393;-48
2022/09/10 02:50:23;;;;;;;2.60;2.40;;;;;;;;;;4972700;28;20394;-48
2022/09/10 02:52:50;;;;;;;2.57;2.40;;;;;;;;;;4972971;28;20423;-48
2022/09/10 02:55:16;;;;;;;2.50;2.30;;;;;;;;;;4972718;28;20753;-49
2022/09/10 02:57:42;;;;;;;2.70;2.47;;;;;;;;;;4972976;28;20394;-47
2022/09/10 03:00:09;;;;;;;2.63;2.43;;;;;;;;;;4972429;28;20804;-48
2022/09/10 03:02:35;;;;;;;4.47;3.00;;;;;;;;;;4972958;28;20403;-48
2022/09/10 03:05:03;;;;;;;2.53;2.43;;;;;;;;;;4972735;28;20441;-48
2022/09/10 03:07:29;;;;;;;5.40;3.20;;;;;;;;;;4972844;28;20408;-49
2022/09/10 03:09:55;;;;;;;4.03;2.87;;;;;;;;;;4972510;28;20421;-48
2022/09/10 03:12:21;;;;;;;7.77;2.97;;;;;;;;;;4972730;28;20395;-49
2022/09/10 03:14:48;;;;;;;3.07;2.90;;;;;;;;;;4971588;28;20417;-48
2022/09/10 03:17:15;;;;;;;3.80;3.43;;;;;;;;;;4971561;28;20507;-48
2022/09/10 03:19:41;;;;;;;9.80;3.60;;;;;;;;;;4971820;28;20401;-49
2022/09/10 03:22:07;;;;;;;3.57;3.00;;;;;;;;;;4972710;28;20392;-48
2022/09/10 03:24:32;;;;;;;4.40;4.10;;;;;;;;;;4972665;28;20459;-48
2022/09/10 03:26:59;;;;;;;4.93;4.33;;;;;;;;;;4972481;28;20803;-48
2022/09/10 03:29:25;;;;;;;8.43;4.80;;;;;;;;;;4972770;28;20476;-48
2022/09/10 03:31:51;;;;;;;5.90;5.20;;;;;;;;;;4972265;28;21055;-48
2022/09/10 03:34:17;;;;;;;7.23;4.20;;;;;;;;;;4972703;28;20391;-48
2022/09/10 03:36:46;;;;;;;4.60;4.30;;;;;;;;;;4972333;28;20436;-48
2022/09/10 03:39:12;;;;;;;6.33;5.13;;;;;;;;;;4972633;28;20950;-47
2022/09/10 03:41:38;;;;;;;6.43;4.60;;;;;;;;;;4972101;28;20988;-48
2022/09/10 03:44:04;;;;;;;4.47;4.17;;;;;;;;;;4970491;28;20494;-47
2022/09/10 03:46:31;;;;;;;7.30;5.67;;;;;;;;;;4972370;28;20399;-48
2022/09/10 03:48:58;;;;;;;6.00;5.50;;;;;;;;;;4972603;28;20387;-48
2022/09/10 03:51:24;;;;;;;5.77;5.07;;;;;;;;;;4972028;28;20511;-47
2022/09/10 03:53:50;;;;;;;5.60;5.10;;;;;;;;;;4975290;28;20510;-48
2022/09/10 03:56:18;;;;;;;5.87;5.33;;;;;;;;;;4975468;28;20450;-47
2022/09/10 03:58:45;;;;;;;7.03;5.07;;;;;;;;;;4975847;28;20428;-49
2022/09/10 04:01:11;;;;;;;6.87;5.50;;;;;;;;;;4975456;28;20401;-48
2022/09/10 04:03:37;;;;;;;6.80;5.67;;;;;;;;;;4975836;28;20490;-49
2022/09/10 04:06:03;;;;;;;5.73;5.23;;;;;;;;;;4975607;28;20489;-47
2022/09/10 04:08:29;;;;;;;7.13;5.23;;;;;;;;;;4975762;28;20475;-48
2022/09/10 04:10:55;;;;;;;8.50;6.30;;;;;;;;;;4975162;28;20510;-47
2022/09/10 04:13:21;;;;;;;5.80;5.23;;;;;;;;;;4975642;28;20457;-48
2022/09/10 04:15:48;;;;;;;9.23;6.90;;;;;;;;;;4974094;28;20439;-49
2022/09/10 04:18:14;;;;;;;6.70;6.10;;;;;;;;;;4975320;28;20428;-48
2022/09/10 04:20:41;;;;;;;6.47;5.87;;;;;;;;;;4975050;28;20383;-48
2022/09/10 04:23:07;;;;;;;8.10;7.40;;;;;;;;;;4975431;28;20368;-47
2022/09/10 04:25:33;;;;;;;8.93;5.93;;;;;;;;;;4975103;28;20442;-48
2022/09/10 04:28:00;;;;;;;11.10;6.40;;;;;;;;;;4975454;28;20387;-48
2022/09/10 04:30:27;;;;;;;8.30;6.87;;;;;;;;;;4974891;28;20494;-47
2022/09/10 04:32:53;;;;;;;14.70;7.40;;;;;;;;;;4975997;28;20783;-48
2022/09/10 04:35:20;;;;;;;9.40;6.90;;;;;;;;;;4974891;28;20429;-47
2022/09/10 04:37:46;;;;;;;9.80;7.30;;;;;;;;;;4975146;28;20400;-49
2022/09/10 04:40:12;;;;;;;8.00;7.20;;;;;;;;;;4974805;28;20903;-48
2022/09/10 04:42:38;;;;;;;11.70;7.97;;;;;;;;;;4975211;28;20397;-47
2022/09/10 04:45:05;;;;;;;8.30;7.60;;;;;;;;;;4973652;28;20431;-47
2022/09/10 04:47:31;;;;;;;9.83;8.00;;;;;;;;;;4974886;28;20508;-48
2022/09/10 04:49:57;;;;;;;8.37;6.13;;;;;;;;;;4974558;28;20511;-48
2022/09/10 04:52:23;;;;;;;7.80;7.10;;;;;;;;;;4974952;28;20383;-47
2022/09/10 04:54:49;;;;;;;9.27;7.40;;;;;;;;;;4973249;28;20392;-48
2022/09/10 04:57:15;;;;;;;10.10;9.03;;;;;;;;;;4974915;28;20997;-48
2022/09/10 04:59:40;;;;;;;8.60;7.60;;;;;;;;;;4974255;28;20510;-47
2022/09/10 05:02:08;;;;;;;9.23;7.50;;;;;;;;;;4975081;28;20405;-49
2022/09/10 05:04:34;;;;;;;10.07;9.00;;;;;;;;;;4973605;28;20425;-48
2022/09/10 05:07:00;;;;;;;11.10;9.47;;;;;;;;;;4974823;28;20449;-48
2022/09/10 05:09:30;;;;;;;10.83;8.27;;;;;;;;;;4974647;28;20880;-48
2022/09/10 05:11:56;;;;;;;10.93;7.87;;;;;;;;;;4974164;28;20447;-48
2022/09/10 05:14:22;;;;;;;11.67;8.47;;;;;;;;;;4974472;28;20457;-48
2022/09/10 05:16:48;;;;;;;8.90;7.70;;;;;;;;;;4974224;28;20468;-48
2022/09/10 05:19:16;;;;;;;11.40;8.63;;;;;;;;;;4974801;28;20401;-49
2022/09/10 05:21:43;;;;;;;10.13;8.90;;;;;;;;;;4974014;28;20376;-48
2022/09/10 05:24:09;;;;;;;11.80;8.47;;;;;;;;;;4974341;28;20379;-48
2022/09/10 05:26:35;;;;;;;10.37;9.17;;;;;;;;;;4974132;28;20430;-48
2022/09/10 05:29:01;;;;;;;12.43;9.20;;;;;;;;;;4974216;28;20413;-48
2022/09/10 05:31:27;;;;;;;10.47;9.27;;;;;;;;;;4973807;28;20416;-48
2022/09/10 05:33:54;;;;;;;12.03;9.37;;;;;;;;;;4974130;28;20415;-49
2022/09/10 05:36:20;;;;;;;13.53;10.20;;;;;;;;;;4973896;28;20468;-49
2022/09/10 05:38:46;;;;;;;19.70;10.80;;;;;;;;;;4974112;28;20422;-48
2022/09/10 05:41:12;;;;;;;12.13;10.53;;;;;;;;;;4972315;28;20436;-49
2022/09/10 05:43:40;;;;;;;20.73;10.40;;;;;;;;;;4973677;28;20752;-49
2022/09/10 05:46:07;;;;;;;17.60;11.30;;;;;;;;;;4973978;28;20403;-49
2022/09/10 05:48:33;;;;;;;17.10;11.30;;;;;;;;;;4973568;28;20415;-49
2022/09/10 05:50:59;;;;;;;12.63;11.00;;;;;;;;;;4972306;28;20835;-48
2022/09/10 05:53:25;;;;;;;14.83;12.10;;;;;;;;;;4973818;28;20492;-48
2022/09/10 05:55:51;;;;;;;17.50;12.10;;;;;;;;;;4973454;28;20538;-50
2022/09/10 05:58:17;;;;;;;14.93;11.90;;;;;;;;;;4973399;28;20919;-49
2022/09/10 06:00:43;;;;;;;12.93;11.57;;;;;;;;;;4973362;28;20383;-49
2022/09/10 06:03:09;;;;;;;15.53;11.40;;;;;;;;;;4973662;28;20411;-50
2022/09/10 06:05:35;;;;;;;13.40;11.83;;;;;;;;;;4973700;28;20410;-49
2022/09/10 06:08:01;;;;;;;15.33;11.10;;;;;;;;;;4973709;28;20895;-48
2022/09/10 06:10:27;;;;;;;13.87;9.90;;;;;;;;;;4973096;28;20494;-50
2022/09/10 06:12:53;;;;;;;15.13;10.67;;;;;;;;;;4973573;28;20416;-49
2022/09/10 06:15:20;;;;;;;14.00;8.87;;;;;;;;;;4972449;28;20413;-49
2022/09/10 06:17:46;;;;;;;10.80;9.70;;;;;;;;;;4972589;28;20436;-49
2022/09/10 06:20:12;;;;;;;12.13;10.37;;;;;;;;;;4971367;28;20410;-50
2022/09/10 06:22:41;;;;;;;13.27;9.77;;;;;;;;;;4972819;28;20919;-49
2022/09/10 06:25:07;;;;;;;13.57;9.53;;;;;;;;;;4972595;28;20379;-49
2022/09/10 06:27:34;;;;;;;11.50;9.90;;;;;;;;;;4971793;28;20407;-49
2022/09/10 06:30:00;;;;;;;10.17;8.93;;;;;;;;;;4972583;28;20890;-48
2022/09/10 06:32:26;;;;;;;10.90;9.63;;;;;;;;;;4973290;28;20441;-49
2022/09/10 06:34:52;;;;;;;13.87;9.53;;;;;;;;;;4973125;28;20431;-48
2022/09/10 06:37:18;;;;;;;11.77;9.77;;;;;;;;;;4973122;28;20443;-48
2022/09/10 06:39:44;;;;;;;12.43;11.07;;;;;;;;;;4972675;28;20804;-48
2022/09/10 06:42:10;;;;;;;11.27;9.80;;;;;;;;;;4971879;28;20398;-49
2022/09/10 06:44:35;;;;;;;17.20;9.90;;;;;;;;;;4973067;28;20401;-49
2022/09/10 06:47:01;;;;;;;10.43;9.53;;;;;;;;;;4972842;28;20403;-49
2022/09/10 06:49:30;;;;;;;9.43;8.53;;;;;;;;;;4972391;28;20455;-49
2022/09/10 06:51:56;;;;;;;16.40;9.67;;;;;;;;;;4972349;28;20474;-49
2022/09/10 06:54:23;;;;;;;16.50;9.40;;;;;;;;;;4970083;28;20440;-49
2022/09/10 06:56:49;;;;;;;11.23;8.50;;;;;;;;;;4972032;28;21003;-48
2022/09/10 06:59:17;;;;;;;13.87;8.87;;;;;;;;;;4972842;28;20536;-49
2022/09/10 07:01:43;;;;;;;9.60;8.60;;;;;;;;;;4972441;28;20397;-49
2022/09/10 07:04:09;;;;;;;10.70;8.83;;;;;;;;;;4972837;28;20387;-48
2022/09/10 07:06:35;;;;;;;10.33;8.80;;;;;;;;;;4972727;28;20432;-48
2022/09/10 07:09:02;;;;;;;12.10;9.03;;;;;;;;;;4971994;28;20444;-48
2022/09/10 07:11:29;;;;;;;11.30;9.37;;;;;;;;;;4971834;28;20542;-48
2022/09/10 07:13:55;;;;;;;13.07;9.57;;;;;;;;;;4972874;28;20837;-49
2022/09/10 07:16:22;;;;;;;11.30;8.87;;;;;;;;;;4972162;28;20467;-48
2022/09/10 07:18:51;;;;;;;10.20;9.00;;;;;;;;;;4972641;28;20412;-48
2022/09/10 07:21:18;;;;;;;10.23;9.20;;;;;;;;;;4972100;28;20407;-48
2022/09/10 07:23:46;;;;;;;12.33;9.67;;;;;;;;;;4972703;28;20412;-48
2022/09/10 07:26:13;;;;;;;11.40;9.70;;;;;;;;;;4972551;28;20399;-48
2022/09/10 07:28:41;;;;;;;11.10;8.70;;;;;;;;;;4975453;28;20383;-48
2022/09/10 07:31:14;;;;;;;15.37;9.83;;;;;;;;;;4975961;28;20859;-48
2022/09/10 07:33:41;;;;;;;11.23;10.13;;;;;;;;;;4976429;28;20412;-49
2022/09/10 07:36:07;;;;;;;13.83;10.10;;;;;;;;;;4976288;28;20517;-48
2022/09/10 07:38:33;;;;;;;13.47;9.57;;;;;;;;;;4976435;28;20367;-49
2022/09/10 07:40:59;;;;;;;16.50;10.47;;;;;;;;;;4975907;28;20695;-49
2022/09/10 07:43:26;;;;;;;10.20;9.30;;;;;;;;;;4976236;28;20408;-48
2022/09/10 07:45:52;;;;;;;16.63;9.60;;;;;;;;;;4973888;28;20793;-48
2022/09/10 07:48:17;;;;;;;11.80;9.23;;;;;;;;;;4975589;28;20402;-48
2022/09/10 07:50:44;;;;;;;12.00;9.73;;;;;;;;;;4975624;28;20384;-48
2022/09/10 07:53:10;;;;;;;10.07;8.30;;;;;;;;;;4976141;28;20380;-49
2022/09/10 07:55:36;;;;;;;7.90;7.20;;;;;;;;;;4975312;28;20434;-49
2022/09/10 07:58:02;;;;;;;9.30;7.90;;;;;;;;;;4972833;28;20442;-49
2022/09/10 08:00:28;;;;;;;9.70;8.10;;;;;;;;;;4974905;28;20381;-49
2022/09/10 08:02:54;;;;;;;10.20;7.03;;;;;;;;;;4975943;28;20381;-50
2022/09/10 08:05:20;;;;;;;8.77;7.13;;;;;;;;;;4975547;28;20416;-49
2022/09/10 08:07:46;;;;;;;8.23;7.27;;;;;;;;;;4975816;28;20515;-50
2022/09/10 08:10:12;;;;;;;8.80;7.63;;;;;;;;;;4975465;28;20915;-49
2022/09/10 08:12:39;;;;;;;8.73;7.83;;;;;;;;;;4973950;28;20430;-49
2022/09/10 08:15:06;;;;;;;11.47;7.37;;;;;;;;;;4975275;28;20388;-49
2022/09/10 08:17:34;;;;;;;7.70;7.00;;;;;;;;;;4975704;28;20504;-49
2022/09/10 08:20:00;;;;;;;10.23;8.30;;;;;;;;;;4975115;28;20402;-48
2022/09/10 08:22:26;;;;;;;9.90;7.70;;;;;;;;;;4975597;28;20463;-49
2022/09/10 08:24:54;;;;;;;8.37;7.40;;;;;;;;;;4975399;28;20816;-48
2022/09/10 08:27:20;;;;;;;10.40;8.17;;;;;;;;;;4974090;28;20438;-49
2022/09/10 08:29:46;;;;;;;10.13;8.13;;;;;;;;;;4975059;28;20483;-49
2022/09/10 08:32:12;;;;;;;9.73;7.00;;;;;;;;;;4972591;28;20565;-49
2022/09/10 08:34:39;;;;;;;8.40;7.57;;;;;;;;;;4973738;28;20390;-48
2022/09/10 08:37:06;;;;;;;8.23;7.43;;;;;;;;;;4975119;28;20441;-49
2022/09/10 08:39:32;;;;;;;8.00;7.30;;;;;;;;;;4975118;28;20380;-48
2022/09/10 08:42:19;;;;;;;13.93;8.17;;;;;;;;;;4974606;28;20445;-49
2022/09/10 08:44:47;;;;;;;8.63;7.73;;;;;;;;;;4974956;28;20499;-48
2022/09/10 08:47:24;;;;;;;8.43;7.67;;;;;;;;;;4975085;28;20431;-49
2022/09/10 08:49:56;;;;;;;9.43;7.17;;;;;;;;;;4972402;28;20413;-49
2022/09/10 08:52:40;;;;;;;9.40;6.60;;;;;;;;;;4974997;28;20398;-50
2022/09/10 08:55:18;;;;;;;8.07;7.10;;;;;;;;;;4974749;28;20379;-48
2022/09/10 08:57:47;;;;;;;9.10;6.50;;;;;;;;;;4974935;28;20471;-48
2022/09/10 09:00:32;;;;;;;7.47;6.80;;;;;;;;;;4973965;28;20424;-48
2022/09/10 09:03:17;;;;;;;10.10;7.20;;;;;;;;;;4973552;28;20383;-48
2022/09/10 09:05:48;;;;;;;7.40;6.87;;;;;;;;;;4972079;28;20422;-50
2022/09/10 09:08:20;;;;;;;10.97;7.10;;;;;;;;;;4974078;28;20419;-49
2022/09/10 09:10:49;;;;;;;6.73;6.13;;;;;;;;;;4970534;28;20498;-50
2022/09/10 09:13:39;;;;;;;8.63;7.00;;;;;;;;;;4973077;28;20432;-49
2022/09/10 09:16:16;;;;;;;8.40;6.30;;;;;;;;;;4973072;28;20463;-48
2022/09/10 09:18:57;;;;;;;8.70;6.17;;;;;;;;;;4970822;28;20381;-49
2022/09/10 09:21:26;;;;;;;7.93;7.10;;;;;;;;;;4970405;28;20498;-49
2022/09/10 09:23:56;;;;;;;8.23;7.43;;;;;;;;;;4973677;28;20435;-48
2022/09/10 09:26:34;;;;;;;7.40;6.70;;;;;;;;;;4972446;28;21142;-49
2022/09/10 09:29:04;;;;;;;7.17;6.47;;;;;;;;;;4973713;28;20440;-48
2022/09/10 09:31:30;;;;;;;7.23;5.83;;;;;;;;;;4970399;28;20428;-48
2022/09/10 09:33:59;;;;;;;6.00;5.40;;;;;;;;;;4971936;28;20437;-49
2022/09/10 09:36:38;;;;;;;5.90;5.40;;;;;;;;;;4974120;28;20834;-49
2022/09/10 09:39:12;;;;;;;6.30;5.70;;;;;;;;;;4974062;28;20386;-48
2022/09/10 09:41:54;;;;;;;6.07;5.57;;;;;;;;;;4972580;28;20611;-48
2022/09/10 09:44:23;;;;;;;7.50;6.90;;;;;;;;;;4972549;28;20375;-49
2022/09/10 09:46:49;;;;;;;6.80;6.30;;;;;;;;;;4973452;28;20436;-50
2022/09/10 09:49:16;;;;;;;9.77;7.00;;;;;;;;;;4973682;28;20507;-50
2022/09/10 09:51:46;;;;;;;7.03;6.03;;;;;;;;;;4970459;28;20441;-50
2022/09/10 09:54:21;;;;;;;8.23;5.80;;;;;;;;;;4973784;28;20801;-50
2022/09/10 09:56:53;;;;;;;9.60;5.93;;;;;;;;;;4973510;28;20458;-49
2022/09/10 09:59:27;;;;;;;6.53;5.77;;;;;;;;;;4973494;28;20433;-49
2022/09/10 10:01:53;;;;;;;6.17;4.87;;;;;;;;;;4970363;28;20412;-50
2022/09/10 10:04:29;;;;;;;5.60;5.10;;;;;;;;;;4964176;28;20928;-48
2022/09/10 10:06:56;;;;;;;5.93;5.33;;;;;;;;;;4971693;28;20438;-49
2022/09/10 10:09:25;;;;;;;6.80;6.20;;;;;;;;;;4973478;28;20417;-49
2022/09/10 10:12:04;;;;;;;7.20;6.50;;;;;;;;;;4972905;28;20463;-48
2022/09/10 10:14:30;;;;;;;7.50;6.00;;;;;;;;;;4971856;28;20432;-48
2022/09/10 10:16:57;;;;;;;7.17;6.47;;;;;;;;;;4972814;28;20464;-49
2022/09/10 10:19:33;;;;;;;10.17;6.30;;;;;;;;;;4972648;28;20491;-49
2022/09/10 10:22:17;;;;;;;8.10;7.27;;;;;;;;;;4972510;28;20404;-49
2022/09/10 10:24:44;;;;;;;12.50;7.00;;;;;;;;;;4971174;28;20439;-49
2022/09/10 10:27:17;;;;;;;8.40;7.70;;;;;;;;;;4972207;28;20417;-49
2022/09/10 10:29:51;;;;;;;8.50;7.70;;;;;;;;;;4973245;28;20853;-50
2022/09/10 10:32:19;;;;;;;8.93;7.63;;;;;;;;;;4971855;28;20893;-49
2022/09/10 10:34:52;;;;;;;8.40;7.60;;;;;;;;;;4971949;28;20474;-51
2022/09/10 10:37:18;;;;;;;9.70;8.57;;;;;;;;;;4971255;28;20565;-49
2022/09/10 10:39:47;;;;;;;8.73;7.97;;;;;;;;;;4972765;28;20473;-49
2022/09/10 10:42:14;;;;;;;9.90;8.70;;;;;;;;;;4971246;28;20422;-49
2022/09/10 10:44:43;;;;;;;10.60;9.60;;;;;;;;;;4972734;28;20565;-49
2022/09/10 10:47:22;;;;;;;9.83;8.27;;;;;;;;;;4972806;28;20432;-49
2022/09/10 10:50:07;;;;;;;8.20;7.50;;;;;;;;;;4971474;28;20428;-48
2022/09/10 10:52:46;;;;;;;7.90;7.10;;;;;;;;;;4971761;28;20389;-49
2022/09/10 10:55:23;;;;;;;12.00;8.57;;;;;;;;;;4972498;28;20455;-49
2022/09/10 10:58:01;;;;;;;8.70;7.03;;;;;;;;;;4972495;28;20889;-50
2022/09/10 11:00:28;;;;;;;9.10;8.20;;;;;;;;;;4972454;28;20408;-49
2022/09/10 11:02:59;;;;;;;9.23;7.53;;;;;;;;;;4974430;28;20404;-49
2022/09/10 11:05:31;;;;;;;8.63;7.83;;;;;;;;;;4976599;28;20404;-49
2022/09/10 11:08:24;;;;;;;10.67;8.70;;;;;;;;;;4976751;28;20464;-49
2022/09/10 11:10:55;;;;;;;10.60;8.90;;;;;;;;;;4959651;28;20427;-50
2022/09/10 11:13:25;;;;;;;15.83;8.57;;;;;;;;;;4976662;28;20375;-49
2022/09/10 11:16:00;;;;;;;21.90;9.13;;;;;;;;;;4976371;28;20491;-49
2022/09/10 11:18:32;;;;;;;15.23;9.57;;;;;;;;;;4976636;28;20389;-49
2022/09/10 11:21:28;;;;;;;11.60;10.50;;;;;;;;;;4974714;28;20465;-49
2022/09/10 11:24:03;;;;;;;9.57;8.77;;;;;;;;;;4960351;28;20449;-49
2022/09/10 11:26:38;;;;;;;10.53;9.63;;;;;;;;;;4976135;28;20412;-49
2022/09/10 11:29:24;;;;;;;10.83;9.00;;;;;;;;;;4976157;28;20382;-51
2022/09/10 11:31:53;;;;;;;12.30;9.80;;;;;;;;;;4975951;28;20455;-51
2022/09/10 11:34:25;;;;;;;10.13;9.20;;;;;;;;;;4976292;28;20453;-50
2022/09/10 11:37:10;;;;;;;10.03;8.63;;;;;;;;;;4975967;28;20540;-49
2022/09/10 11:39:38;;;;;;;11.00;10.10;;;;;;;;;;4976236;28;20420;-49
2022/09/10 11:42:14;;;;;;;12.60;11.27;;;;;;;;;;4975787;28;20460;-49
2022/09/10 11:44:57;;;;;;;11.37;10.33;;;;;;;;;;4976007;28;20364;-49
2022/09/10 11:47:42;;;;;;;9.50;8.70;;;;;;;;;;4976086;28;20399;-50
2022/09/10 11:50:28;;;;;;;9.77;8.90;;;;;;;;;;4975387;28;20839;-50
2022/09/10 11:52:55;;;;;;;8.40;7.60;;;;;;;;;;4976064;28;20381;-50
2022/09/10 11:55:22;;;;;;;8.37;7.63;;;;;;;;;;4975469;28;20891;-50
2022/09/10 11:58:11;;;;;;;10.17;7.50;;;;;;;;;;4975719;28;20863;-51
2022/09/10 12:00:44;;;;;;;11.10;7.63;;;;;;;;;;4974488;28;20429;-50
2022/09/10 12:03:36;;;;;;;7.80;7.10;;;;;;;;;;4975758;28;20364;-50
2022/09/10 12:06:22;;;;;;;8.43;7.63;;;;;;;;;;4975403;28;20441;-47
2022/09/10 12:09:06;;;;;;;8.73;7.80;;;;;;;;;;4975186;28;20405;-49
2022/09/10 12:11:43;;;;;;;9.13;8.30;;;;;;;;;;4975077;28;20843;-53
2022/09/10 12:14:16;;;;;;;8.53;7.73;;;;;;;;;;4975016;28;20419;-53
2022/09/10 12:16:53;;;;;;;12.20;10.17;;;;;;;;;;4975242;28;20453;-52
2022/09/10 12:19:19;;;;;;;10.43;9.47;;;;;;;;;;4975412;28;20734;-53
2022/09/10 12:21:51;;;;;;;11.67;10.37;;;;;;;;;;4974113;28;20484;-52
2022/09/10 12:24:35;;;;;;;12.77;8.83;;;;;;;;;;4974321;28;20412;-53
2022/09/10 12:27:01;;;;;;;10.30;8.80;;;;;;;;;;4975203;28;20417;-51
2022/09/10 12:29:35;;;;;;;10.20;9.13;;;;;;;;;;4975304;28;20421;-53
2022/09/10 12:32:07;;;;;;;9.33;8.47;;;;;;;;;;4974836;28;20406;-52
2022/09/10 12:34:34;;;;;;;10.43;9.33;;;;;;;;;;4975008;28;20836;-49
2022/09/10 12:37:00;;;;;;;14.73;9.77;;;;;;;;;;4974941;28;20469;-49
2022/09/10 12:39:26;;;;;;;10.23;9.33;;;;;;;;;;4975031;28;20411;-51
2022/09/10 12:41:52;;;;;;;10.53;9.60;;;;;;;;;;4976017;28;20776;-49
2022/09/10 12:44:27;;;;;;;12.03;10.80;;;;;;;;;;4974926;28;20405;-50
2022/09/10 12:47:12;;;;;;;12.37;11.07;;;;;;;;;;4973881;28;20459;-49
2022/09/10 12:49:47;;;;;;;13.50;12.07;;;;;;;;;;4974967;28;20381;-49
2022/09/10 12:52:22;;;;;;;13.17;11.90;;;;;;;;;;4974393;28;20417;-49
2022/09/10 12:55:03;;;;;;;13.73;11.70;;;;;;;;;;4974633;28;20426;-49
2022/09/10 12:57:49;;;;;;;14.80;12.50;;;;;;;;;;4974546;28;20477;-50
2022/09/10 13:00:20;;;;;;;14.13;12.73;;;;;;;;;;4974420;28;20972;-49
2022/09/10 13:02:46;;;;;;;15.97;14.30;;;;;;;;;;4974843;28;20882;-52
2022/09/10 13:05:18;;;;;;;15.23;13.70;;;;;;;;;;4974519;28;20402;-53
2022/09/10 13:07:48;;;;;;;14.17;12.87;;;;;;;;;;4974662;28;20440;-52
2022/09/10 13:10:21;;;;;;;16.10;13.77;;;;;;;;;;4974151;28;20782;-52
2022/09/10 13:12:49;;;;;;;18.80;14.30;;;;;;;;;;4971867;28;20424;-53
2022/09/10 13:15:20;;;;;;;16.07;14.50;;;;;;;;;;4973537;28;20390;-53
2022/09/10 13:17:53;;;;;;;18.40;16.57;;;;;;;;;;4974562;28;20993;-53
2022/09/10 13:20:19;;;;;;;18.30;15.73;;;;;;;;;;4973164;28;20403;-50
2022/09/10 13:22:51;;;;;;;16.80;14.90;;;;;;;;;;4974444;28;20420;-51
2022/09/10 13:25:25;;;;;;;17.00;15.20;;;;;;;;;;4973216;28;20412;-52
2022/09/10 13:27:51;;;;;;;21.07;18.07;;;;;;;;;;4974380;28;20472;-53
2022/09/10 13:30:19;;;;;;;23.10;18.20;;;;;;;;;;4973853;28;20454;-52
2022/09/10 13:32:51;;;;;;;22.33;17.00;;;;;;;;;;4974340;28;20417;-51
2022/09/10 13:35:18;;;;;;;17.80;15.90;;;;;;;;;;4973948;28;20777;-53
2022/09/10 13:38:03;;;;;;;18.57;16.30;;;;;;;;;;4974133;28;20996;-51
2022/09/10 13:40:50;;;;;;;18.00;16.20;;;;;;;;;;4973804;28;20382;-51
2022/09/10 13:43:29;;;;;;;24.03;15.30;;;;;;;;;;4973007;28;20797;-53
2022/09/10 13:45:58;;;;;;;20.40;15.83;;;;;;;;;;4973946;28;20431;-51
2022/09/10 13:48:29;;;;;;;17.87;15.57;;;;;;;;;;4974061;28;20377;-52
2022/09/10 13:51:10;;;;;;;28.00;17.40;;;;;;;;;;4973202;28;20519;-52
2022/09/10 13:53:40;;;;;;;26.13;17.47;;;;;;;;;;4974043;28;20435;-52
2022/09/10 13:56:12;;;;;;;25.67;16.40;;;;;;;;;;4973755;28;20455;-51
2022/09/10 13:58:41;;;;;;;25.87;17.67;;;;;;;;;;4973823;28;20406;-51
2022/09/10 14:01:07;;;;;;;29.73;18.20;;;;;;;;;;4973693;28;20406;-52
2022/09/10 14:03:35;;;;;;;46.03;19.57;;;;;;;;;;4973704;28;20470;-52
2022/09/10 14:06:04;;;;;;;18.60;16.70;;;;;;;;;;4973414;28;20489;-51
2022/09/10 14:08:35;;;;;;;24.90;18.13;;;;;;;;;;4973529;28;20385;-52
2022/09/10 14:11:06;;;;;;;23.90;16.77;;;;;;;;;;4973218;28;20883;-49
2022/09/10 14:13:32;;;;;;;21.13;18.10;;;;;;;;;;4972635;28;20441;-49
2022/09/10 14:15:59;;;;;;;33.00;18.03;;;;;;;;;;4972592;28;20484;-51
2022/09/10 14:18:30;;;;;;;25.30;19.50;;;;;;;;;;4973413;28;20382;-49
2022/09/10 14:20:57;;;;;;;23.93;17.93;;;;;;;;;;4972204;28;20468;-50
2022/09/10 14:23:23;;;;;;;24.73;17.90;;;;;;;;;;4973322;28;20799;-50
2022/09/10 14:26:07;;;;;;;32.97;20.80;;;;;;;;;;4973204;28;20467;-50
2022/09/10 14:28:33;;;;;;;26.10;19.30;;;;;;;;;;4973270;28;20489;-49
2022/09/10 14:31:17;;;;;;;27.30;18.67;;;;;;;;;;4972931;28;20463;-53
2022/09/10 14:33:43;;;;;;;26.67;17.97;;;;;;;;;;4971650;28;20914;-52
2022/09/10 14:36:33;;;;;;;28.10;19.00;;;;;;;;;;4972743;28;20466;-51
2022/09/10 14:39:03;;;;;;;27.23;18.43;;;;;;;;;;4962937;28;20913;-49
2022/09/10 14:41:31;;;;;;;22.40;19.07;;;;;;;;;;4970467;28;20389;-49
2022/09/10 14:44:15;;;;;;;23.47;18.13;;;;;;;;;;4972907;28;20520;-48
2022/09/10 14:46:53;;;;;;;25.93;18.87;;;;;;;;;;4972721;28;20770;-49
2022/09/10 14:49:25;;;;;;;26.90;19.40;;;;;;;;;;4972631;28;20895;-49